createdAt,value
2022-11-16T00:05:03.501Z,88.26
2022-11-16T00:11:19.111Z,89.01
2022-11-16T00:17:21.003Z,89.49
2022-11-16T00:23:23.430Z,88.23
2022-11-16T00:29:27.002Z,87.58
2022-11-16T00:35:29.011Z,87.84
2022-11-16T00:41:30.919Z,87.98
2022-11-16T00:47:32.847Z,88.06
2022-11-16T00:53:36.280Z,88.44
2022-11-16T00:59:38.171Z,89.30
2022-11-16T01:05:40.108Z,88.62
2022-11-16T01:12:00.347Z,87.61
2022-11-16T01:18:02.226Z,88.28
2022-11-16T01:24:04.443Z,89.73
2022-11-16T01:30:09.717Z,90.27
2022-11-16T01:36:17.289Z,90.90
2022-11-16T01:42:28.297Z,91.20
2022-11-16T01:48:30.854Z,91.80
2022-11-16T01:54:37.582Z,92.87
2022-11-16T02:00:39.460Z,93.16
2022-11-16T02:07:19.875Z,93.04
2022-11-16T02:14:28.567Z,93.49
2022-11-16T02:20:58.041Z,93.56
2022-11-16T02:27:19.758Z,93.88
2022-11-16T02:33:26.554Z,94.32
2022-11-16T02:39:31.838Z,94.25
2022-11-16T02:45:40.556Z,91.42
2022-11-16T02:51:43.374Z,90.18
2022-11-16T02:58:00.840Z,91.15
2022-11-16T03:04:32.858Z,92.37
2022-11-16T03:10:57.747Z,90.95
2022-11-16T03:17:02.403Z,91.05
2022-11-16T03:23:11.215Z,92.03
2022-11-16T03:29:29.995Z,91.44
2022-11-16T03:35:57.793Z,91.78
2022-11-16T03:42:02.653Z,90.38
2022-11-16T03:48:06.627Z,91.10
2022-11-16T03:54:08.498Z,91.20
2022-11-16T04:00:11.527Z,90.55
2022-11-16T04:06:32.300Z,90.80
2022-11-16T04:12:52.897Z,90.48
2022-11-16T04:19:13.588Z,90.99
2022-11-16T04:25:27.496Z,90.61
2022-11-16T04:31:48.107Z,91.54
2022-11-16T04:37:50.433Z,92.16
2022-11-16T04:43:52.355Z,92.80
2022-11-16T04:49:54.261Z,93.22
2022-11-16T04:56:00.689Z,94.09
2022-11-16T05:02:09.135Z,95.26
2022-11-16T05:08:11.060Z,96.06
2022-11-16T05:14:13.100Z,96.83
2022-11-16T05:20:34.012Z,96.80
2022-11-16T05:26:35.889Z,98.05
2022-11-16T05:32:37.779Z,98.32
2022-11-16T05:38:39.682Z,98.63
2022-11-16T05:44:41.618Z,98.85
2022-11-16T05:50:43.515Z,99.53
2022-11-16T05:56:47.126Z,98.63
2022-11-16T06:02:49.084Z,98.54
2022-11-16T06:08:51.094Z,99.55
2022-11-16T06:14:52.971Z,99.80
2022-11-16T06:20:55.517Z,100.00
2022-11-16T06:26:57.479Z,100.00
2022-11-16T06:32:59.546Z,100.00
2022-11-16T06:39:01.576Z,100.00
2022-11-16T06:45:04.549Z,100.00
2022-11-16T06:51:06.501Z,100.00
2022-11-16T06:57:08.418Z,99.71
2022-11-16T07:03:10.557Z,100.00
2022-11-16T07:09:15.124Z,100.00
2022-11-16T07:15:17.586Z,100.00
2022-11-16T07:21:19.824Z,100.00
2022-11-16T07:27:21.778Z,100.00
2022-11-16T07:33:23.656Z,100.00
2022-11-16T07:39:25.568Z,100.00
2022-11-16T07:45:27.455Z,100.00
2022-11-16T07:51:29.383Z,99.87
2022-11-16T07:57:31.337Z,100.00
2022-11-16T08:03:34.989Z,100.00
2022-11-16T08:09:38.051Z,100.00
2022-11-16T08:15:40.074Z,100.00
2022-11-16T08:21:42.167Z,100.00
2022-11-16T08:27:44.173Z,100.00
2022-11-16T08:33:46.165Z,100.00
2022-11-16T08:39:48.086Z,99.84
2022-11-16T08:45:51.390Z,100.00
2022-11-16T08:51:53.284Z,100.00
2022-11-16T08:57:56.059Z,100.00
2022-11-16T09:03:58.297Z,99.98
2022-11-16T09:10:00.375Z,98.83
2022-11-16T09:16:03.382Z,99.29
2022-11-16T09:22:05.376Z,99.46
2022-11-16T09:28:07.622Z,99.82
2022-11-16T09:34:09.592Z,99.46
2022-11-16T09:40:12.574Z,99.91
2022-11-16T09:46:36.496Z,100.00
2022-11-16T09:52:47.359Z,99.19
2022-11-16T09:59:22.916Z,100.00
2022-11-16T10:06:03.254Z,99.06
2022-11-16T10:12:45.344Z,99.20
2022-11-16T10:19:22.342Z,98.30
2022-11-16T10:25:31.984Z,96.79
2022-11-16T10:32:20.779Z,95.85
2022-11-16T10:38:31.064Z,95.03
2022-11-16T10:45:14.069Z,96.09
2022-11-16T10:51:16.124Z,95.22
2022-11-16T10:57:18.272Z,95.47
2022-11-16T11:03:31.692Z,94.65
2022-11-16T11:09:38.596Z,95.42
2022-11-16T11:15:42.876Z,95.48
2022-11-16T11:21:46.940Z,95.58
2022-11-16T11:27:52.855Z,95.89
2022-11-16T11:34:25.428Z,96.37
2022-11-16T11:40:32.694Z,98.55
2022-11-16T11:47:18.204Z,99.00
2022-11-16T11:53:43.396Z,97.91
2022-11-16T11:59:45.308Z,98.06
2022-11-16T12:06:06.489Z,97.52
2022-11-16T12:12:38.210Z,99.39
2022-11-16T12:19:05.148Z,99.45
2022-11-16T12:25:33.932Z,99.07
2022-11-16T12:31:47.622Z,100.00
2022-11-16T12:38:10.595Z,99.75
2022-11-16T12:44:40.379Z,100.00
2022-11-16T12:51:05.332Z,98.81
2022-11-16T12:57:44.593Z,99.84
2022-11-16T13:04:20.811Z,99.71
2022-11-16T13:10:35.147Z,100.00
2022-11-16T13:16:37.267Z,100.00
2022-11-16T13:22:46.706Z,100.00
2022-11-16T13:28:59.858Z,100.00
2022-11-16T13:35:05.795Z,100.00
2022-11-16T13:41:43.023Z,100.00
2022-11-16T13:47:58.004Z,99.86
2022-11-16T14:00:28.870Z,98.66
2022-11-16T14:06:30.633Z,97.71
2022-11-16T14:12:38.396Z,98.58
2022-11-16T14:18:40.680Z,99.45
2022-11-16T14:25:01.393Z,99.65
2022-11-16T14:31:23.228Z,99.68
2022-11-16T14:37:38.343Z,96.83
2022-11-16T14:43:49.745Z,97.47
2022-11-16T14:49:53.356Z,98.28
2022-11-16T14:56:16.871Z,97.47
2022-11-16T15:02:26.624Z,98.36
2022-11-16T15:08:45.331Z,99.09
2022-11-16T15:14:57.614Z,99.70
2022-11-16T15:20:59.583Z,100.00
2022-11-16T15:27:40.286Z,99.98
2022-11-16T15:33:45.278Z,100.00
2022-11-16T15:39:47.253Z,100.00
2022-11-16T15:45:49.892Z,100.00
2022-11-16T15:51:52.034Z,100.00
2022-11-16T15:58:11.503Z,100.00
2022-11-16T16:04:18.587Z,100.00
2022-11-16T16:10:20.650Z,100.00
2022-11-16T16:16:36.873Z,100.00
2022-11-16T16:22:38.810Z,100.00
2022-11-16T16:28:41.494Z,100.00
2022-11-16T16:34:43.435Z,100.00
2022-11-16T16:40:45.343Z,100.00
2022-11-16T16:46:47.285Z,100.00
2022-11-16T16:52:49.297Z,100.00
2022-11-16T16:58:51.233Z,100.00
2022-11-16T17:04:53.268Z,100.00
2022-11-16T17:10:55.201Z,100.00
2022-11-16T17:16:57.111Z,100.00
2022-11-16T17:22:59.007Z,100.00
2022-11-16T17:29:01.028Z,100.00
2022-11-16T17:35:03.011Z,100.00
2022-11-16T17:41:14.999Z,100.00
2022-11-16T17:47:16.908Z,100.00
2022-11-16T17:53:18.806Z,100.00
2022-11-16T17:59:24.994Z,100.00
2022-11-16T18:05:30.648Z,100.00
2022-11-16T18:11:32.606Z,100.00
2022-11-16T18:17:36.188Z,100.00
2022-11-16T18:23:39.243Z,100.00
2022-11-16T18:29:41.220Z,100.00
2022-11-16T18:35:44.086Z,100.00
2022-11-16T18:41:51.653Z,100.00
2022-11-16T18:47:56.350Z,100.00
2022-11-16T18:53:58.351Z,100.00
2022-11-16T19:00:00.342Z,100.00
2022-11-16T19:06:08.834Z,100.00
2022-11-16T19:12:12.520Z,100.00
2022-11-16T19:18:21.369Z,100.00
2022-11-16T19:24:24.023Z,100.00
2022-11-16T19:30:25.920Z,100.00
2022-11-16T19:36:29.480Z,100.00
2022-11-16T19:42:32.551Z,100.00
2022-11-16T19:48:35.126Z,100.00
2022-11-16T19:54:37.106Z,100.00
2022-11-16T20:00:39.031Z,100.00
2022-11-16T20:06:41.001Z,100.00
2022-11-16T20:12:43.443Z,100.00
2022-11-16T20:18:46.750Z,100.00
2022-11-16T20:24:48.671Z,100.00
2022-11-16T20:30:50.578Z,100.00
2022-11-16T20:36:52.544Z,100.00
2022-11-16T20:42:59.102Z,100.00
2022-11-16T20:49:01.838Z,100.00
2022-11-16T20:55:03.951Z,100.00
2022-11-16T21:01:10.646Z,100.00
2022-11-16T21:07:12.601Z,100.00
2022-11-16T21:13:37.053Z,100.00
2022-11-16T21:19:39.378Z,100.00
2022-11-16T21:25:41.247Z,100.00
2022-11-16T21:31:43.132Z,100.00
2022-11-16T21:37:45.123Z,100.00
2022-11-16T21:43:47.154Z,100.00
2022-11-16T21:50:16.821Z,100.00
2022-11-16T21:56:20.113Z,100.00
2022-11-16T22:02:22.121Z,100.00
2022-11-16T22:08:24.064Z,100.00
2022-11-16T22:14:25.952Z,100.00
2022-11-16T22:20:27.883Z,100.00
2022-11-16T22:26:29.766Z,100.00
2022-11-16T22:32:31.755Z,100.00
2022-11-16T22:38:34.170Z,100.00
2022-11-16T22:44:36.077Z,100.00
2022-11-16T22:50:37.997Z,100.00
2022-11-16T22:56:39.980Z,100.00
2022-11-16T23:02:41.959Z,100.00
2022-11-16T23:08:43.917Z,100.00
2022-11-16T23:15:10.280Z,100.00
2022-11-16T23:21:30.745Z,100.00
2022-11-16T23:28:14.255Z,100.00
2022-11-16T23:34:16.111Z,100.00
2022-11-16T23:40:18.188Z,100.00
2022-11-16T23:46:20.085Z,100.00
2022-11-16T23:52:21.978Z,100.00
2022-11-16T23:58:23.862Z,100.00
